createdAt,value
2023-02-02T00:00:00.777Z,65.45
2023-02-02T00:02:03.522Z,65.02
2023-02-02T00:04:07.646Z,65.73
2023-02-02T00:06:10.392Z,65.54
2023-02-02T00:08:13.041Z,65.78
2023-02-02T00:10:15.834Z,65.53
2023-02-02T00:12:18.483Z,65.46
2023-02-02T00:14:21.115Z,65.86
2023-02-02T00:16:37.418Z,65.79
2023-02-02T00:18:40.014Z,65.86
2023-02-02T00:20:45.354Z,66.20
2023-02-02T00:22:47.980Z,66.15
2023-02-02T00:24:50.646Z,66.47
2023-02-02T00:26:54.134Z,66.25
2023-02-02T00:28:57.149Z,66.63
2023-02-02T00:30:59.919Z,66.54
2023-02-02T00:33:02.585Z,66.50
2023-02-02T00:35:05.251Z,66.66
2023-02-02T00:37:09.222Z,66.73
2023-02-02T00:39:14.015Z,66.97
2023-02-02T00:41:17.158Z,66.47
2023-02-02T00:43:19.845Z,66.79
2023-02-02T00:45:22.285Z,66.42
2023-02-02T00:47:25.102Z,66.58
2023-02-02T00:49:27.717Z,66.79
2023-02-02T00:51:30.390Z,66.51
2023-02-02T00:53:35.129Z,66.72
2023-02-02T00:55:37.797Z,66.81
2023-02-02T00:57:41.147Z,66.67
2023-02-02T00:59:43.824Z,67.00
2023-02-02T01:01:46.596Z,66.94
2023-02-02T01:03:49.581Z,67.03
2023-02-02T01:05:52.291Z,66.52
2023-02-02T01:07:55.063Z,66.94
2023-02-02T01:09:59.120Z,66.85
2023-02-02T01:12:01.843Z,66.51
2023-02-02T01:14:05.090Z,66.40
2023-02-02T01:16:08.252Z,66.46
2023-02-02T01:18:10.952Z,66.20
2023-02-02T01:20:17.035Z,66.43
2023-02-02T01:22:19.679Z,66.50
2023-02-02T01:24:22.522Z,66.46
2023-02-02T01:26:26.645Z,65.92
2023-02-02T01:28:29.986Z,66.04
2023-02-02T01:30:32.685Z,66.40
2023-02-02T01:32:35.280Z,66.16
2023-02-02T01:34:41.556Z,66.61
2023-02-02T01:36:44.211Z,66.66
2023-02-02T01:38:47.301Z,66.64
2023-02-02T01:40:52.165Z,66.47
2023-02-02T01:42:56.145Z,66.13
2023-02-02T01:45:16.297Z,66.33
2023-02-02T01:47:19.718Z,66.44
2023-02-02T01:49:23.214Z,66.18
2023-02-02T01:51:28.064Z,66.43
2023-02-02T01:53:30.857Z,66.57
2023-02-02T01:55:36.728Z,66.24
2023-02-02T01:57:41.866Z,66.10
2023-02-02T01:59:47.498Z,65.81
2023-02-02T02:01:51.896Z,66.50
2023-02-02T02:03:54.855Z,66.05
2023-02-02T02:05:59.728Z,65.79
2023-02-02T02:08:07.640Z,66.04
2023-02-02T02:10:10.843Z,66.17
2023-02-02T02:12:15.407Z,66.05
2023-02-02T02:14:35.902Z,66.38
2023-02-02T02:16:46.740Z,66.46
2023-02-02T02:18:54.005Z,66.35
2023-02-02T02:21:27.951Z,66.29
2023-02-02T02:23:56.125Z,66.26
2023-02-02T02:26:26.028Z,66.51
2023-02-02T02:28:47.089Z,66.08
2023-02-02T02:31:06.188Z,66.58
2023-02-02T02:33:16.449Z,66.50
2023-02-02T02:35:24.884Z,66.68
2023-02-02T02:37:31.475Z,66.92
2023-02-02T02:39:36.044Z,66.46
2023-02-02T02:41:42.001Z,66.50
2023-02-02T02:43:48.117Z,66.67
2023-02-02T02:45:51.552Z,66.39
2023-02-02T02:47:54.687Z,66.50
2023-02-02T02:49:58.684Z,66.24
2023-02-02T02:52:01.329Z,66.72
2023-02-02T02:54:08.839Z,66.26
2023-02-02T02:56:15.058Z,66.78
2023-02-02T02:58:19.780Z,66.41
2023-02-02T03:00:36.001Z,66.33
2023-02-02T03:02:44.445Z,66.43
2023-02-02T03:04:51.355Z,66.45
2023-02-02T03:06:58.360Z,66.33
2023-02-02T03:09:02.811Z,66.25
2023-02-02T03:11:07.023Z,66.64
2023-02-02T03:13:11.300Z,66.84
2023-02-02T03:15:14.648Z,67.52
2023-02-02T03:17:17.280Z,67.73
2023-02-02T03:19:19.895Z,67.46
2023-02-02T03:21:22.495Z,67.68
2023-02-02T03:23:27.049Z,67.72
2023-02-02T03:25:29.652Z,67.67
2023-02-02T03:27:32.394Z,67.61
2023-02-02T03:29:35.034Z,67.49
2023-02-02T03:31:37.827Z,67.71
2023-02-02T03:33:40.552Z,67.61
2023-02-02T03:35:43.249Z,67.39
2023-02-02T03:37:46.038Z,67.56
2023-02-02T03:39:49.989Z,67.85
2023-02-02T03:41:52.590Z,67.62
2023-02-02T03:43:55.265Z,67.12
2023-02-02T03:45:58.414Z,67.35
2023-02-02T03:48:01.097Z,67.71
2023-02-02T03:50:03.939Z,67.36
2023-02-02T03:52:06.601Z,67.17
2023-02-02T03:54:09.229Z,67.18
2023-02-02T03:56:13.179Z,67.26
2023-02-02T03:58:15.907Z,67.58
2023-02-02T04:00:18.897Z,67.20
2023-02-02T04:02:21.524Z,67.24
2023-02-02T04:04:24.164Z,67.49
2023-02-02T04:06:27.217Z,67.20
2023-02-02T04:08:30.122Z,67.37
2023-02-02T04:10:32.762Z,67.21
2023-02-02T04:12:36.752Z,67.21
2023-02-02T04:14:39.369Z,67.39
2023-02-02T04:16:41.961Z,66.90
2023-02-02T04:18:44.654Z,66.62
2023-02-02T04:20:47.291Z,66.87
2023-02-02T04:22:50.004Z,66.70
2023-02-02T04:24:52.708Z,66.41
2023-02-02T04:26:55.471Z,66.51
2023-02-02T04:28:59.475Z,66.46
2023-02-02T04:31:02.234Z,65.84
2023-02-02T04:33:04.902Z,65.98
2023-02-02T04:35:08.035Z,65.86
2023-02-02T04:37:10.714Z,65.50
2023-02-02T04:39:13.609Z,65.76
2023-02-02T04:41:16.365Z,65.63
2023-02-02T04:43:18.986Z,65.56
2023-02-02T04:45:23.226Z,65.35
2023-02-02T04:47:26.064Z,65.56
2023-02-02T04:49:28.735Z,65.34
2023-02-02T04:51:31.301Z,64.91
2023-02-02T04:53:34.226Z,65.13
2023-02-02T04:55:37.688Z,64.79
2023-02-02T04:57:40.401Z,64.93
2023-02-02T04:59:42.984Z,65.43
2023-02-02T05:01:50.859Z,64.98
2023-02-02T05:03:53.528Z,65.28
2023-02-02T05:06:01.851Z,65.58
2023-02-02T05:08:04.631Z,65.53
2023-02-02T05:10:08.461Z,65.66
2023-02-02T05:12:11.118Z,65.76
2023-02-02T05:14:14.280Z,65.65
2023-02-02T05:16:17.341Z,65.41
2023-02-02T05:18:22.035Z,65.59
2023-02-02T05:20:24.847Z,65.73
2023-02-02T05:22:27.650Z,65.66
2023-02-02T05:24:30.301Z,65.89
2023-02-02T05:26:32.949Z,65.79
2023-02-02T05:28:36.071Z,65.65
2023-02-02T05:30:39.903Z,65.75
2023-02-02T05:32:42.693Z,65.61
2023-02-02T05:34:46.649Z,66.47
2023-02-02T05:36:49.327Z,65.85
2023-02-02T05:38:52.060Z,65.41
2023-02-02T05:40:54.693Z,65.52
2023-02-02T05:42:57.385Z,66.00
2023-02-02T05:45:00.312Z,66.02
2023-02-02T05:47:02.983Z,66.06
2023-02-02T05:49:06.066Z,66.13
2023-02-02T05:51:13.133Z,65.55
2023-02-02T05:53:16.776Z,65.96
2023-02-02T05:55:20.075Z,66.15
2023-02-02T05:57:22.834Z,65.81
2023-02-02T05:59:25.570Z,65.95
2023-02-02T06:01:28.284Z,66.08
2023-02-02T06:03:31.232Z,66.05
2023-02-02T06:05:34.564Z,65.95
2023-02-02T06:07:38.553Z,66.03
2023-02-02T06:09:41.213Z,66.02
2023-02-02T06:11:44.163Z,66.15
2023-02-02T06:13:46.832Z,66.52
2023-02-02T06:15:49.512Z,66.14
2023-02-02T06:17:52.118Z,65.94
2023-02-02T06:19:54.769Z,66.15
2023-02-02T06:21:57.378Z,65.87
2023-02-02T06:24:02.198Z,66.40
2023-02-02T06:26:05.120Z,66.18
2023-02-02T06:28:07.747Z,66.49
2023-02-02T06:30:11.127Z,66.48
2023-02-02T06:32:13.789Z,66.59
2023-02-02T06:34:16.459Z,66.54
2023-02-02T06:36:19.230Z,66.90
2023-02-02T06:38:21.935Z,66.57
2023-02-02T06:40:25.993Z,66.63
2023-02-02T06:42:28.662Z,67.25
2023-02-02T06:44:31.285Z,66.92
2023-02-02T06:46:33.945Z,66.78
2023-02-02T06:48:36.632Z,67.15
2023-02-02T06:50:39.326Z,66.77
2023-02-02T06:52:47.726Z,67.21
2023-02-02T06:54:50.380Z,67.16
2023-02-02T06:56:55.160Z,66.67
2023-02-02T06:58:57.976Z,66.77
2023-02-02T07:01:04.188Z,66.83
2023-02-02T07:03:06.877Z,66.84
2023-02-02T07:05:10.251Z,66.66
2023-02-02T07:07:12.878Z,66.94
2023-02-02T07:09:15.529Z,66.98
2023-02-02T07:11:18.673Z,66.93
2023-02-02T07:13:23.007Z,67.00
2023-02-02T07:15:25.985Z,67.22
2023-02-02T07:17:29.046Z,66.66
2023-02-02T07:19:31.868Z,67.02
2023-02-02T07:21:36.572Z,66.69
2023-02-02T07:23:39.260Z,66.85
2023-02-02T07:25:43.840Z,66.83
2023-02-02T07:27:47.806Z,66.77
2023-02-02T07:29:51.807Z,66.87
2023-02-02T07:31:54.541Z,67.10
2023-02-02T07:33:57.665Z,66.67
2023-02-02T07:36:02.470Z,67.27
2023-02-02T07:38:05.117Z,66.94
2023-02-02T07:40:08.726Z,66.76
2023-02-02T07:42:12.186Z,66.73
2023-02-02T07:44:16.964Z,67.01
2023-02-02T07:46:21.443Z,66.94
2023-02-02T07:48:24.109Z,66.83
2023-02-02T07:50:27.120Z,66.82
2023-02-02T07:52:30.297Z,66.80
2023-02-02T07:54:33.168Z,66.63
2023-02-02T07:56:35.958Z,66.79
2023-02-02T07:58:38.986Z,66.71
2023-02-02T08:00:41.592Z,66.85
2023-02-02T08:02:45.600Z,66.69
2023-02-02T08:04:48.406Z,66.71
2023-02-02T08:06:51.082Z,67.23
2023-02-02T08:08:53.748Z,67.42
2023-02-02T08:10:56.372Z,67.29
2023-02-02T08:12:59.026Z,67.06
2023-02-02T08:15:01.691Z,67.13
2023-02-02T08:17:04.403Z,67.14
2023-02-02T08:19:08.507Z,67.45
2023-02-02T08:21:11.648Z,67.31
2023-02-02T08:23:16.663Z,67.22
2023-02-02T08:25:19.248Z,67.11
2023-02-02T08:27:21.894Z,67.25
2023-02-02T08:29:24.647Z,67.14
2023-02-02T08:31:29.290Z,67.40
2023-02-02T08:33:31.924Z,66.88
2023-02-02T08:35:35.877Z,66.28
2023-02-02T08:37:38.581Z,66.91
2023-02-02T08:39:41.220Z,67.01
2023-02-02T08:41:45.248Z,67.10
2023-02-02T08:43:47.943Z,66.37
2023-02-02T08:46:02.112Z,66.39
2023-02-02T08:48:12.126Z,66.30
2023-02-02T08:50:15.283Z,66.43
2023-02-02T08:52:19.231Z,66.35
2023-02-02T08:54:21.828Z,66.38
2023-02-02T08:56:24.704Z,65.94
2023-02-02T08:58:27.601Z,65.82
2023-02-02T09:00:30.259Z,65.86
2023-02-02T09:02:33.055Z,65.70
2023-02-02T09:04:35.709Z,65.48
2023-02-02T09:06:39.437Z,65.27
2023-02-02T09:08:43.687Z,65.53
2023-02-02T09:10:46.380Z,65.24
2023-02-02T09:12:49.045Z,65.21
2023-02-02T09:14:51.940Z,65.47
2023-02-02T09:16:54.685Z,65.19
2023-02-02T09:18:57.633Z,64.88
2023-02-02T09:21:00.938Z,64.76
2023-02-02T09:23:03.581Z,64.30
2023-02-02T09:25:07.906Z,64.40
2023-02-02T09:27:10.525Z,64.33
2023-02-02T09:29:14.016Z,63.85
2023-02-02T09:31:17.305Z,63.89
2023-02-02T09:33:20.235Z,63.98
2023-02-02T09:35:23.320Z,63.68
2023-02-02T09:37:26.355Z,63.61
2023-02-02T09:39:28.954Z,63.44
2023-02-02T09:41:51.272Z,63.79
2023-02-02T09:44:01.706Z,63.07
2023-02-02T09:46:09.490Z,63.16
2023-02-02T09:48:17.951Z,63.34
2023-02-02T09:50:23.582Z,63.07
2023-02-02T09:52:29.438Z,63.09
2023-02-02T09:54:35.907Z,63.00
2023-02-02T09:56:41.114Z,62.99
2023-02-02T09:58:46.672Z,62.63
2023-02-02T10:00:55.107Z,63.01
2023-02-02T10:03:01.191Z,62.92
2023-02-02T10:05:09.409Z,62.65
2023-02-02T10:07:14.962Z,62.88
2023-02-02T10:09:26.585Z,62.89
2023-02-02T10:11:32.641Z,63.02
2023-02-02T10:13:37.887Z,62.72
2023-02-02T10:15:43.413Z,62.38
2023-02-02T10:17:49.694Z,62.70
2023-02-02T10:19:56.249Z,62.58
2023-02-02T10:22:04.273Z,62.37
2023-02-02T10:24:13.625Z,62.25
2023-02-02T10:26:20.204Z,62.69
2023-02-02T10:28:27.691Z,62.85
2023-02-02T10:30:36.312Z,62.75
2023-02-02T10:32:46.195Z,62.78
2023-02-02T10:35:11.017Z,62.15
2023-02-02T10:37:22.371Z,62.09
2023-02-02T10:39:28.394Z,62.25
2023-02-02T10:41:38.840Z,62.09
2023-02-02T10:43:58.417Z,62.23
2023-02-02T10:46:02.528Z,62.23
2023-02-02T10:48:13.337Z,62.45
2023-02-02T10:50:17.712Z,62.14
2023-02-02T10:52:23.652Z,62.50
2023-02-02T10:54:54.864Z,62.49
2023-02-02T10:57:00.346Z,62.73
2023-02-02T10:59:06.269Z,62.67
2023-02-02T11:01:11.505Z,62.25
2023-02-02T11:03:16.199Z,62.38
2023-02-02T11:05:39.065Z,62.50
2023-02-02T11:07:43.059Z,62.33
2023-02-02T11:09:45.712Z,62.53
2023-02-02T11:11:50.922Z,62.42
2023-02-02T11:13:55.428Z,62.34
2023-02-02T11:16:16.700Z,62.48
2023-02-02T11:18:28.557Z,62.23
2023-02-02T11:20:33.247Z,62.48
2023-02-02T11:22:38.442Z,62.36
2023-02-02T11:24:46.135Z,62.15
2023-02-02T11:26:51.212Z,62.01
2023-02-02T11:28:55.244Z,61.55
2023-02-02T11:30:58.191Z,62.00
2023-02-02T11:33:01.133Z,62.02
2023-02-02T11:35:18.070Z,61.98
2023-02-02T11:37:21.953Z,62.04
2023-02-02T11:39:24.699Z,61.81
2023-02-02T11:41:31.943Z,61.27
2023-02-02T11:43:40.814Z,61.89
2023-02-02T11:45:45.563Z,61.61
2023-02-02T11:47:48.160Z,61.77
2023-02-02T11:49:52.400Z,61.51
2023-02-02T11:52:00.005Z,62.00
2023-02-02T11:54:04.019Z,61.95
2023-02-02T11:56:08.441Z,61.75
2023-02-02T11:58:24.693Z,61.58
2023-02-02T12:00:28.653Z,61.55
2023-02-02T12:02:31.576Z,61.55
2023-02-02T12:04:34.366Z,61.16
2023-02-02T12:06:38.124Z,60.63
2023-02-02T12:08:40.718Z,60.81
2023-02-02T12:10:45.403Z,60.78
2023-02-02T12:12:54.261Z,60.84
2023-02-02T12:15:04.064Z,60.71
2023-02-02T12:17:19.992Z,60.37
2023-02-02T12:19:43.483Z,60.83
2023-02-02T12:21:53.705Z,60.24
2023-02-02T12:24:04.459Z,60.43
2023-02-02T12:26:13.641Z,60.26
2023-02-02T12:28:21.645Z,59.97
2023-02-02T12:30:30.586Z,60.47
2023-02-02T12:32:45.978Z,60.55
2023-02-02T12:34:55.751Z,60.20
2023-02-02T12:37:03.630Z,60.64
2023-02-02T12:39:22.810Z,60.82
2023-02-02T12:41:33.428Z,60.59
2023-02-02T12:43:40.404Z,60.81
2023-02-02T12:45:58.211Z,61.03
2023-02-02T12:48:11.554Z,60.67
2023-02-02T12:50:24.526Z,61.28
2023-02-02T12:52:35.049Z,60.83
2023-02-02T12:54:47.571Z,60.96
2023-02-02T12:56:58.441Z,60.83
2023-02-02T12:59:08.364Z,60.23
2023-02-02T13:01:19.835Z,61.08
2023-02-02T13:03:28.628Z,60.40
2023-02-02T13:05:37.099Z,60.67
2023-02-02T13:07:42.462Z,60.77
2023-02-02T13:09:49.793Z,61.17
2023-02-02T13:11:55.861Z,60.52
2023-02-02T13:14:00.241Z,60.44
2023-02-02T13:16:06.687Z,61.28
2023-02-02T13:18:11.610Z,60.57
2023-02-02T13:20:21.516Z,60.70
2023-02-02T13:22:26.493Z,60.22
2023-02-02T13:24:31.013Z,60.27
2023-02-02T13:26:37.668Z,60.21
2023-02-02T13:28:44.343Z,60.60
2023-02-02T13:30:48.701Z,60.60
2023-02-02T13:32:53.159Z,60.63
2023-02-02T13:34:58.062Z,60.06
2023-02-02T13:37:04.853Z,60.51
2023-02-02T13:39:15.744Z,60.89
2023-02-02T13:41:18.511Z,60.21
2023-02-02T13:43:26.316Z,60.99
2023-02-02T13:45:41.323Z,60.38
2023-02-02T13:47:47.921Z,60.68
2023-02-02T13:49:54.468Z,60.42
2023-02-02T13:52:09.803Z,61.11
2023-02-02T13:54:37.176Z,60.97
2023-02-02T13:56:41.362Z,60.36
2023-02-02T13:58:58.856Z,61.18
2023-02-02T14:01:02.545Z,60.82
2023-02-02T14:03:06.298Z,60.70
2023-02-02T14:05:09.680Z,61.27
2023-02-02T14:07:14.320Z,61.45
2023-02-02T14:09:19.213Z,61.15
2023-02-02T14:11:23.975Z,61.35
2023-02-02T14:13:45.233Z,60.83
2023-02-02T14:15:48.126Z,61.49
2023-02-02T14:17:52.881Z,61.27
2023-02-02T14:19:56.230Z,61.25
2023-02-02T14:22:00.219Z,61.27
2023-02-02T14:24:05.311Z,61.21
2023-02-02T14:26:08.244Z,61.17
2023-02-02T14:28:12.424Z,60.76
2023-02-02T14:30:21.065Z,61.10
2023-02-02T14:32:30.608Z,60.93
2023-02-02T14:34:34.854Z,60.92
2023-02-02T14:36:39.009Z,60.84
2023-02-02T14:38:59.072Z,61.07
2023-02-02T14:41:07.299Z,60.68
2023-02-02T14:43:37.315Z,61.22
2023-02-02T14:45:40.464Z,60.96
2023-02-02T14:47:51.158Z,60.96
2023-02-02T14:49:57.493Z,61.02
2023-02-02T14:52:03.003Z,61.12
2023-02-02T14:54:08.537Z,60.61
2023-02-02T14:56:14.354Z,60.98
2023-02-02T14:58:24.113Z,61.54
2023-02-02T15:00:29.225Z,61.42
2023-02-02T15:02:34.130Z,61.16
2023-02-02T15:04:37.034Z,60.75
2023-02-02T15:06:42.112Z,61.24
2023-02-02T15:08:44.877Z,60.72
2023-02-02T15:11:29.219Z,60.50
2023-02-02T15:13:37.667Z,60.58
2023-02-02T15:15:43.701Z,60.93
2023-02-02T15:18:02.077Z,60.79
2023-02-02T15:20:08.855Z,60.87
2023-02-02T15:22:18.215Z,60.64
2023-02-02T15:24:25.534Z,60.24
2023-02-02T15:26:29.630Z,60.67
2023-02-02T15:28:38.139Z,60.75
2023-02-02T15:30:43.476Z,60.13
2023-02-02T15:32:46.813Z,60.64
2023-02-02T15:34:50.966Z,60.80
2023-02-02T15:36:54.737Z,60.42
2023-02-02T15:38:59.640Z,60.56
2023-02-02T15:41:05.381Z,60.56
2023-02-02T15:43:10.113Z,61.03
2023-02-02T15:45:27.986Z,61.24
2023-02-02T15:47:34.393Z,61.05
2023-02-02T15:49:37.136Z,60.90
2023-02-02T15:51:40.364Z,60.97
2023-02-02T15:53:49.148Z,60.68
2023-02-02T15:55:51.887Z,61.28
2023-02-02T15:57:55.281Z,60.66
2023-02-02T15:59:58.391Z,60.50
2023-02-02T16:02:06.496Z,60.68
2023-02-02T16:04:15.533Z,60.68
2023-02-02T16:06:18.992Z,60.45
2023-02-02T16:08:25.140Z,60.94
2023-02-02T16:10:27.949Z,60.21
2023-02-02T16:12:30.697Z,60.54
2023-02-02T16:14:36.204Z,60.79
2023-02-02T16:16:40.708Z,60.68
2023-02-02T16:18:43.558Z,60.26
2023-02-02T16:20:48.264Z,60.60
2023-02-02T16:22:51.244Z,60.59
2023-02-02T16:24:54.853Z,60.51
2023-02-02T16:26:59.014Z,60.54
2023-02-02T16:29:01.869Z,60.72
2023-02-02T16:31:05.310Z,60.42
2023-02-02T16:33:26.559Z,60.73
2023-02-02T16:35:33.907Z,60.92
2023-02-02T16:37:37.954Z,60.54
2023-02-02T16:39:40.589Z,60.73
2023-02-02T16:41:47.226Z,60.68
2023-02-02T16:43:49.882Z,60.42
2023-02-02T16:45:53.794Z,60.72
2023-02-02T16:48:02.728Z,60.63
2023-02-02T16:50:20.135Z,60.77
2023-02-02T16:52:23.416Z,60.63
2023-02-02T16:54:27.383Z,60.40
2023-02-02T16:56:31.783Z,60.45
2023-02-02T16:58:37.228Z,60.93
2023-02-02T17:00:40.484Z,61.09
2023-02-02T17:02:48.155Z,61.04
2023-02-02T17:04:53.268Z,61.24
2023-02-02T17:06:58.062Z,61.10
2023-02-02T17:09:14.635Z,60.60
2023-02-02T17:11:23.696Z,61.13
2023-02-02T17:13:37.030Z,61.28
2023-02-02T17:15:39.784Z,61.43
2023-02-02T17:17:42.464Z,61.51
2023-02-02T17:19:45.138Z,61.31
2023-02-02T17:21:49.471Z,61.40
2023-02-02T17:23:54.100Z,61.70
2023-02-02T17:25:57.001Z,61.45
2023-02-02T17:28:01.391Z,61.75
2023-02-02T17:30:05.188Z,61.68
2023-02-02T17:32:07.835Z,61.49
2023-02-02T17:34:11.953Z,61.57
2023-02-02T17:36:15.606Z,61.69
2023-02-02T17:38:18.261Z,61.77
2023-02-02T17:40:21.689Z,61.80
2023-02-02T17:42:26.192Z,62.25
2023-02-02T17:44:30.114Z,62.43
2023-02-02T17:46:33.477Z,62.80
2023-02-02T17:48:37.112Z,62.54
2023-02-02T17:50:40.421Z,62.35
2023-02-02T17:52:43.160Z,62.54
2023-02-02T17:54:45.772Z,62.69
2023-02-02T17:56:48.499Z,62.51
2023-02-02T17:58:51.465Z,62.91
2023-02-02T18:00:58.886Z,62.93
2023-02-02T18:03:10.969Z,62.88
2023-02-02T18:05:15.440Z,63.14
2023-02-02T18:07:18.225Z,63.10
2023-02-02T18:09:21.816Z,62.93
2023-02-02T18:11:24.837Z,63.11
2023-02-02T18:13:27.488Z,63.04
2023-02-02T18:15:30.238Z,62.99
2023-02-02T18:17:34.545Z,63.44
2023-02-02T18:19:39.090Z,63.81
2023-02-02T18:21:41.779Z,63.59
2023-02-02T18:23:44.421Z,63.73
2023-02-02T18:25:47.231Z,64.02
2023-02-02T18:27:51.561Z,64.20
2023-02-02T18:29:54.271Z,64.22
2023-02-02T18:31:58.551Z,64.44
2023-02-02T18:34:02.780Z,64.63
2023-02-02T18:36:07.074Z,64.64
2023-02-02T18:38:09.780Z,64.77
2023-02-02T18:40:13.097Z,65.02
2023-02-02T18:42:15.733Z,65.25
2023-02-02T18:44:18.394Z,65.29
2023-02-02T18:46:21.116Z,64.94
2023-02-02T18:48:23.820Z,65.06
2023-02-02T18:50:27.899Z,65.25
2023-02-02T18:52:32.537Z,65.06
2023-02-02T18:54:35.736Z,65.01
2023-02-02T18:56:38.713Z,64.75
2023-02-02T18:58:41.944Z,65.08
2023-02-02T19:00:46.196Z,65.21
2023-02-02T19:02:48.820Z,65.22
2023-02-02T19:05:09.224Z,65.35
2023-02-02T19:07:39.108Z,65.73
2023-02-02T19:09:41.788Z,65.73
2023-02-02T19:11:45.134Z,65.29
2023-02-02T19:13:48.060Z,64.82
2023-02-02T19:15:51.719Z,65.03
2023-02-02T19:18:58.386Z,65.43
2023-02-02T19:21:01.195Z,65.61
2023-02-02T19:23:24.127Z,65.33
2023-02-02T19:25:27.231Z,65.63
2023-02-02T19:27:32.487Z,65.91
2023-02-02T19:29:39.169Z,65.55
2023-02-02T19:31:41.994Z,65.54
2023-02-02T19:33:47.250Z,65.44
2023-02-02T19:35:53.042Z,65.35
2023-02-02T19:38:01.558Z,65.59
2023-02-02T19:40:18.192Z,65.84
2023-02-02T19:42:21.109Z,65.71
2023-02-02T19:44:26.825Z,65.98
2023-02-02T19:46:31.550Z,66.20
2023-02-02T19:48:36.557Z,65.88
2023-02-02T19:50:40.919Z,65.57
2023-02-02T19:52:48.196Z,65.52
2023-02-02T19:54:51.775Z,65.83
2023-02-02T19:56:58.140Z,65.97
2023-02-02T19:59:01.149Z,66.15
2023-02-02T20:01:14.999Z,66.27
2023-02-02T20:03:23.754Z,65.93
2023-02-02T20:05:28.084Z,65.98
2023-02-02T20:07:31.255Z,66.12
2023-02-02T20:09:35.712Z,66.17
2023-02-02T20:11:40.801Z,66.23
2023-02-02T20:13:47.647Z,65.83
2023-02-02T20:15:52.101Z,65.31
2023-02-02T20:17:58.240Z,65.17
2023-02-02T20:20:01.175Z,65.50
2023-02-02T20:22:04.525Z,65.41
2023-02-02T20:24:18.015Z,65.28
2023-02-02T20:26:27.982Z,64.85
2023-02-02T20:28:41.519Z,65.05
2023-02-02T20:30:44.548Z,65.32
2023-02-02T20:32:52.014Z,65.39
2023-02-02T20:34:57.216Z,65.34
2023-02-02T20:37:03.378Z,65.48
2023-02-02T20:39:27.354Z,65.11
2023-02-02T20:41:33.781Z,65.74
2023-02-02T20:43:36.624Z,65.58
2023-02-02T20:45:41.573Z,65.36
2023-02-02T20:47:46.010Z,65.52
2023-02-02T20:49:49.118Z,65.83
2023-02-02T20:51:52.636Z,65.64
2023-02-02T20:53:56.308Z,65.60
2023-02-02T20:56:03.069Z,65.78
2023-02-02T20:58:08.172Z,65.53
2023-02-02T21:00:12.989Z,65.35
2023-02-02T21:02:19.175Z,65.58
2023-02-02T21:04:22.835Z,65.84
2023-02-02T21:06:27.710Z,66.29
2023-02-02T21:08:31.485Z,65.89
2023-02-02T21:10:34.430Z,66.15
2023-02-02T21:12:37.223Z,65.70
2023-02-02T21:14:41.683Z,65.67
2023-02-02T21:16:44.940Z,65.36
2023-02-02T21:18:47.736Z,65.71
2023-02-02T21:20:50.731Z,65.69
2023-02-02T21:22:55.954Z,65.87
2023-02-02T21:24:58.750Z,65.88
2023-02-02T21:27:03.193Z,65.70
2023-02-02T21:29:06.109Z,66.16
2023-02-02T21:31:12.042Z,66.06
2023-02-02T21:33:14.996Z,66.26
2023-02-02T21:35:18.026Z,65.98
2023-02-02T21:37:20.805Z,66.21
2023-02-02T21:39:25.832Z,66.05
2023-02-02T21:41:31.236Z,66.12
2023-02-02T21:43:34.080Z,66.35
2023-02-02T21:45:38.672Z,66.01
2023-02-02T21:47:51.046Z,66.21
2023-02-02T21:49:56.497Z,66.29
2023-02-02T21:52:03.147Z,66.66
2023-02-02T21:54:18.904Z,66.26
2023-02-02T21:56:28.199Z,66.47
2023-02-02T21:58:34.904Z,66.48
2023-02-02T22:00:37.733Z,66.07
2023-02-02T22:02:45.200Z,66.46
2023-02-02T22:04:48.167Z,66.28
2023-02-02T22:06:53.982Z,66.71
2023-02-02T22:09:02.711Z,66.75
2023-02-02T22:11:15.106Z,66.56
2023-02-02T22:13:20.335Z,66.47
2023-02-02T22:15:27.966Z,66.61
2023-02-02T22:17:40.514Z,66.08
2023-02-02T22:19:45.464Z,66.14
2023-02-02T22:21:48.111Z,66.13
2023-02-02T22:23:51.010Z,66.46
2023-02-02T22:25:55.548Z,66.58
2023-02-02T22:27:59.666Z,66.50
2023-02-02T22:30:19.823Z,66.81
2023-02-02T22:32:22.702Z,66.94
2023-02-02T22:34:25.525Z,66.74
2023-02-02T22:36:29.724Z,66.67
2023-02-02T22:38:32.608Z,66.56
2023-02-02T22:40:36.043Z,66.65
2023-02-02T22:42:38.880Z,67.09
2023-02-02T22:44:43.912Z,66.82
2023-02-02T22:46:47.897Z,67.08
2023-02-02T22:48:50.735Z,67.09
2023-02-02T22:50:53.520Z,67.35
2023-02-02T22:52:58.389Z,67.27
2023-02-02T22:55:01.027Z,67.47
2023-02-02T22:57:03.842Z,67.21
2023-02-02T22:59:06.835Z,67.46
2023-02-02T23:01:11.639Z,67.51
2023-02-02T23:03:14.612Z,68.08
2023-02-02T23:05:19.676Z,67.96
2023-02-02T23:07:22.473Z,67.99
2023-02-02T23:09:26.683Z,67.77
2023-02-02T23:11:29.524Z,67.83
2023-02-02T23:13:32.329Z,68.20
2023-02-02T23:15:35.814Z,68.67
2023-02-02T23:17:39.086Z,68.51
2023-02-02T23:19:42.071Z,68.37
2023-02-02T23:21:44.980Z,68.21
2023-02-02T23:23:47.783Z,68.43
2023-02-02T23:25:51.984Z,68.52
2023-02-02T23:27:54.878Z,68.47
2023-02-02T23:29:57.754Z,68.09
2023-02-02T23:32:00.660Z,68.32
2023-02-02T23:34:03.514Z,68.47
2023-02-02T23:36:07.018Z,68.36
2023-02-02T23:38:09.849Z,68.54
2023-02-02T23:40:13.844Z,68.40
2023-02-02T23:42:18.059Z,68.41
2023-02-02T23:44:20.860Z,68.62
2023-02-02T23:46:24.170Z,68.54
2023-02-02T23:48:27.331Z,68.22
2023-02-02T23:50:30.647Z,68.49
2023-02-02T23:52:34.699Z,68.18
2023-02-02T23:54:37.905Z,68.40
2023-02-02T23:56:41.929Z,68.77
2023-02-02T23:58:46.187Z,68.90
